sensor_id;sensor_type;location;lat;lon;timestamp;temperature;humidity
5196;DHT22;2617;51.006;12.436;2023-08-07T00:01:28;14.00;99.90
5196;DHT22;2617;51.006;12.436;2023-08-07T00:06:31;14.00;99.90
5196;DHT22;2617;51.006;12.436;2023-08-07T00:11:33;13.90;99.90
5196;DHT22;2617;51.006;12.436;2023-08-07T00:16:34;13.90;99.90
5196;DHT22;2617;51.006;12.436;2023-08-07T00:21:36;13.90;99.90
5196;DHT22;2617;51.006;12.436;2023-08-07T00:26:38;13.90;99.90
5196;DHT22;2617;51.006;12.436;2023-08-07T00:31:40;14.00;99.90
5196;DHT22;2617;51.006;12.436;2023-08-07T00:36:42;14.00;99.90
5196;DHT22;2617;51.006;12.436;2023-08-07T00:41:44;13.90;99.90
5196;DHT22;2617;51.006;12.436;2023-08-07T00:46:46;13.90;99.90
5196;DHT22;2617;51.006;12.436;2023-08-07T00:51:48;13.90;99.90
5196;DHT22;2617;51.006;12.436;2023-08-07T00:56:50;13.80;99.90
5196;DHT22;2617;51.006;12.436;2023-08-07T01:01:52;13.80;99.90
5196;DHT22;2617;51.006;12.436;2023-08-07T01:06:54;13.80;99.90
5196;DHT22;2617;51.006;12.436;2023-08-07T01:12:13;13.80;99.90
5196;DHT22;2617;51.006;12.436;2023-08-07T01:17:15;13.80;99.90
5196;DHT22;2617;51.006;12.436;2023-08-07T01:22:16;13.70;99.90
5196;DHT22;2617;51.006;12.436;2023-08-07T01:27:25;13.80;99.90
5196;DHT22;2617;51.006;12.436;2023-08-07T01:32:29;13.80;99.90
5196;DHT22;2617;51.006;12.436;2023-08-07T01:37:29;13.70;99.90
5196;DHT22;2617;51.006;12.436;2023-08-07T01:42:30;13.80;99.90
5196;DHT22;2617;51.006;12.436;2023-08-07T01:47:32;13.70;99.90
5196;DHT22;2617;51.006;12.436;2023-08-07T01:52:33;13.80;99.90
5196;DHT22;2617;51.006;12.436;2023-08-07T01:57:35;13.70;99.90
5196;DHT22;2617;51.006;12.436;2023-08-07T02:02:37;13.70;99.90
5196;DHT22;2617;51.006;12.436;2023-08-07T02:07:39;13.70;99.90
5196;DHT22;2617;51.006;12.436;2023-08-07T02:12:41;13.70;99.90
5196;DHT22;2617;51.006;12.436;2023-08-07T02:17:43;13.70;99.90
5196;DHT22;2617;51.006;12.436;2023-08-07T02:22:44;13.70;99.90
5196;DHT22;2617;51.006;12.436;2023-08-07T02:27:47;13.70;99.90
5196;DHT22;2617;51.006;12.436;2023-08-07T02:32:49;13.70;99.90
5196;DHT22;2617;51.006;12.436;2023-08-07T02:37:51;13.70;99.90
5196;DHT22;2617;51.006;12.436;2023-08-07T02:42:54;13.70;99.90
5196;DHT22;2617;51.006;12.436;2023-08-07T02:47:56;13.70;99.90
5196;DHT22;2617;51.006;12.436;2023-08-07T02:52:59;13.60;99.90
5196;DHT22;2617;51.006;12.436;2023-08-07T02:58:00;13.60;99.90
5196;DHT22;2617;51.006;12.436;2023-08-07T03:03:02;13.60;99.90
5196;DHT22;2617;51.006;12.436;2023-08-07T03:08:03;13.50;99.90
5196;DHT22;2617;51.006;12.436;2023-08-07T03:13:05;13.50;99.90
5196;DHT22;2617;51.006;12.436;2023-08-07T03:18:08;13.50;99.90
5196;DHT22;2617;51.006;12.436;2023-08-07T03:23:11;13.50;99.90
5196;DHT22;2617;51.006;12.436;2023-08-07T03:28:12;13.50;99.90
5196;DHT22;2617;51.006;12.436;2023-08-07T03:33:14;13.60;99.90
5196;DHT22;2617;51.006;12.436;2023-08-07T03:38:16;13.60;99.90
5196;DHT22;2617;51.006;12.436;2023-08-07T03:43:18;13.70;99.90
5196;DHT22;2617;51.006;12.436;2023-08-07T03:48:19;13.70;99.90
5196;DHT22;2617;51.006;12.436;2023-08-07T03:53:21;13.80;99.90
5196;DHT22;2617;51.006;12.436;2023-08-07T03:58:24;13.80;99.90
5196;DHT22;2617;51.006;12.436;2023-08-07T04:03:26;13.70;99.90
5196;DHT22;2617;51.006;12.436;2023-08-07T04:08:27;13.80;99.90
5196;DHT22;2617;51.006;12.436;2023-08-07T04:13:29;13.80;99.90
5196;DHT22;2617;51.006;12.436;2023-08-07T04:18:32;13.70;99.90
5196;DHT22;2617;51.006;12.436;2023-08-07T04:23:33;13.70;99.90
5196;DHT22;2617;51.006;12.436;2023-08-07T04:28:35;13.70;99.90
5196;DHT22;2617;51.006;12.436;2023-08-07T04:33:37;13.70;99.90
5196;DHT22;2617;51.006;12.436;2023-08-07T04:38:39;13.70;99.90
5196;DHT22;2617;51.006;12.436;2023-08-07T04:43:42;13.80;99.90
5196;DHT22;2617;51.006;12.436;2023-08-07T04:48:44;13.70;99.90
5196;DHT22;2617;51.006;12.436;2023-08-07T04:53:46;13.80;99.90
5196;DHT22;2617;51.006;12.436;2023-08-07T04:58:48;13.80;99.90
5196;DHT22;2617;51.006;12.436;2023-08-07T05:03:50;13.80;99.90
5196;DHT22;2617;51.006;12.436;2023-08-07T05:08:52;13.80;99.90
5196;DHT22;2617;51.006;12.436;2023-08-07T05:13:53;13.90;99.90
5196;DHT22;2617;51.006;12.436;2023-08-07T05:18:55;14.00;99.90
5196;DHT22;2617;51.006;12.436;2023-08-07T05:23:57;14.00;99.90
5196;DHT22;2617;51.006;12.436;2023-08-07T05:28:58;14.00;99.90
5196;DHT22;2617;51.006;12.436;2023-08-07T05:34:00;13.90;99.90
5196;DHT22;2617;51.006;12.436;2023-08-07T05:39:02;14.00;99.90
5196;DHT22;2617;51.006;12.436;2023-08-07T05:44:04;14.00;99.90
5196;DHT22;2617;51.006;12.436;2023-08-07T05:49:06;14.00;99.90
5196;DHT22;2617;51.006;12.436;2023-08-07T05:54:07;14.10;99.90
5196;DHT22;2617;51.006;12.436;2023-08-07T05:59:10;14.50;99.90
5196;DHT22;2617;51.006;12.436;2023-08-07T06:04:12;14.50;99.90
5196;DHT22;2617;51.006;12.436;2023-08-07T06:09:14;14.50;99.90
5196;DHT22;2617;51.006;12.436;2023-08-07T06:14:16;14.70;99.90
5196;DHT22;2617;51.006;12.436;2023-08-07T06:19:18;14.80;99.90
5196;DHT22;2617;51.006;12.436;2023-08-07T06:24:20;14.90;99.90
5196;DHT22;2617;51.006;12.436;2023-08-07T06:29:22;15.10;99.90
5196;DHT22;2617;51.006;12.436;2023-08-07T06:34:24;15.30;99.90
5196;DHT22;2617;51.006;12.436;2023-08-07T06:39:27;15.50;99.90
5196;DHT22;2617;51.006;12.436;2023-08-07T06:44:29;15.50;99.90
5196;DHT22;2617;51.006;12.436;2023-08-07T06:49:31;15.50;99.90
5196;DHT22;2617;51.006;12.436;2023-08-07T06:54:33;15.50;99.90
5196;DHT22;2617;51.006;12.436;2023-08-07T06:59:36;15.50;99.90
5196;DHT22;2617;51.006;12.436;2023-08-07T07:04:38;15.60;99.90
5196;DHT22;2617;51.006;12.436;2023-08-07T07:09:41;15.70;99.90
5196;DHT22;2617;51.006;12.436;2023-08-07T07:14:43;15.90;99.90
5196;DHT22;2617;51.006;12.436;2023-08-07T07:19:46;16.00;99.90
5196;DHT22;2617;51.006;12.436;2023-08-07T07:24:48;15.90;99.90
5196;DHT22;2617;51.006;12.436;2023-08-07T07:29:50;16.10;99.90
5196;DHT22;2617;51.006;12.436;2023-08-07T07:34:52;16.40;99.90
5196;DHT22;2617;51.006;12.436;2023-08-07T07:39:54;16.40;99.90
5196;DHT22;2617;51.006;12.436;2023-08-07T07:44:56;16.30;99.90
5196;DHT22;2617;51.006;12.436;2023-08-07T07:50:06;16.20;99.90
5196;DHT22;2617;51.006;12.436;2023-08-07T07:55:07;16.20;99.90
5196;DHT22;2617;51.006;12.436;2023-08-07T08:00:10;16.10;99.90
5196;DHT22;2617;51.006;12.436;2023-08-07T08:05:12;16.10;99.90
5196;DHT22;2617;51.006;12.436;2023-08-07T08:10:15;16.10;99.90
5196;DHT22;2617;51.006;12.436;2023-08-07T08:15:17;16.10;99.90
5196;DHT22;2617;51.006;12.436;2023-08-07T08:20:19;16.10;99.90
5196;DHT22;2617;51.006;12.436;2023-08-07T08:25:21;16.10;99.90
5196;DHT22;2617;51.006;12.436;2023-08-07T08:30:23;16.10;99.90
5196;DHT22;2617;51.006;12.436;2023-08-07T08:35:25;16.20;99.90
5196;DHT22;2617;51.006;12.436;2023-08-07T08:40:27;16.60;99.90
5196;DHT22;2617;51.006;12.436;2023-08-07T08:45:29;17.60;99.90
5196;DHT22;2617;51.006;12.436;2023-08-07T08:50:32;17.60;99.90
5196;DHT22;2617;51.006;12.436;2023-08-07T08:55:33;17.20;99.90
5196;DHT22;2617;51.006;12.436;2023-08-07T09:00:35;17.00;99.90
5196;DHT22;2617;51.006;12.436;2023-08-07T09:05:37;17.10;99.90
5196;DHT22;2617;51.006;12.436;2023-08-07T09:10:39;17.20;99.90
5196;DHT22;2617;51.006;12.436;2023-08-07T09:15:41;17.90;99.90
5196;DHT22;2617;51.006;12.436;2023-08-07T09:20:43;17.90;99.90
5196;DHT22;2617;51.006;12.436;2023-08-07T09:25:46;18.00;99.90
5196;DHT22;2617;51.006;12.436;2023-08-07T09:30:48;18.00;99.90
5196;DHT22;2617;51.006;12.436;2023-08-07T09:35:49;17.90;99.90
5196;DHT22;2617;51.006;12.436;2023-08-07T09:40:51;18.00;99.90
5196;DHT22;2617;51.006;12.436;2023-08-07T09:46:01;18.00;99.90
5196;DHT22;2617;51.006;12.436;2023-08-07T09:50:58;18.20;99.90
5196;DHT22;2617;51.006;12.436;2023-08-07T09:55:58;18.20;99.90
5196;DHT22;2617;51.006;12.436;2023-08-07T10:01:02;18.20;99.90
5196;DHT22;2617;51.006;12.436;2023-08-07T10:06:02;18.20;99.90
5196;DHT22;2617;51.006;12.436;2023-08-07T10:11:04;18.10;99.90
5196;DHT22;2617;51.006;12.436;2023-08-07T10:16:06;18.10;99.90
5196;DHT22;2617;51.006;12.436;2023-08-07T10:21:09;17.40;99.90
5196;DHT22;2617;51.006;12.436;2023-08-07T10:26:10;17.40;99.90
5196;DHT22;2617;51.006;12.436;2023-08-07T10:31:13;17.80;99.90
5196;DHT22;2617;51.006;12.436;2023-08-07T10:36:16;17.80;99.90
5196;DHT22;2617;51.006;12.436;2023-08-07T10:41:17;18.10;99.90
5196;DHT22;2617;51.006;12.436;2023-08-07T10:46:20;17.80;99.90
5196;DHT22;2617;51.006;12.436;2023-08-07T10:51:23;17.90;99.90
5196;DHT22;2617;51.006;12.436;2023-08-07T10:56:30;18.50;99.90
5196;DHT22;2617;51.006;12.436;2023-08-07T11:01:54;18.30;99.90
5196;DHT22;2617;51.006;12.436;2023-08-07T11:06:56;18.20;99.90
5196;DHT22;2617;51.006;12.436;2023-08-07T11:11:58;19.10;99.90
5196;DHT22;2617;51.006;12.436;2023-08-07T11:17:00;19.10;99.90
5196;DHT22;2617;51.006;12.436;2023-08-07T11:22:02;19.80;99.90
5196;DHT22;2617;51.006;12.436;2023-08-07T11:27:04;20.00;99.90
5196;DHT22;2617;51.006;12.436;2023-08-07T11:32:08;18.40;99.90
5196;DHT22;2617;51.006;12.436;2023-08-07T11:37:14;18.20;99.90
5196;DHT22;2617;51.006;12.436;2023-08-07T11:42:12;18.20;99.90
5196;DHT22;2617;51.006;12.436;2023-08-07T11:47:14;18.40;99.90
5196;DHT22;2617;51.006;12.436;2023-08-07T11:52:15;18.60;99.90
5196;DHT22;2617;51.006;12.436;2023-08-07T11:57:20;19.20;99.90
5196;DHT22;2617;51.006;12.436;2023-08-07T12:02:24;19.20;99.90
5196;DHT22;2617;51.006;12.436;2023-08-07T12:07:25;19.60;99.90
5196;DHT22;2617;51.006;12.436;2023-08-07T12:12:27;20.10;99.90
5196;DHT22;2617;51.006;12.436;2023-08-07T12:17:31;20.10;99.90
5196;DHT22;2617;51.006;12.436;2023-08-07T12:22:31;19.70;99.90
5196;DHT22;2617;51.006;12.436;2023-08-07T12:27:33;18.90;99.90
5196;DHT22;2617;51.006;12.436;2023-08-07T12:32:34;18.90;99.90
5196;DHT22;2617;51.006;12.436;2023-08-07T12:37:36;19.30;99.90
5196;DHT22;2617;51.006;12.436;2023-08-07T12:42:38;19.80;99.90
5196;DHT22;2617;51.006;12.436;2023-08-07T12:47:40;19.60;99.90
5196;DHT22;2617;51.006;12.436;2023-08-07T12:52:42;19.80;99.90
5196;DHT22;2617;51.006;12.436;2023-08-07T12:57:44;19.80;99.90
5196;DHT22;2617;51.006;12.436;2023-08-07T13:02:46;19.50;99.90
5196;DHT22;2617;51.006;12.436;2023-08-07T13:07:47;19.10;99.90
5196;DHT22;2617;51.006;12.436;2023-08-07T13:12:50;18.40;99.90
5196;DHT22;2617;51.006;12.436;2023-08-07T13:17:52;18.50;99.90
5196;DHT22;2617;51.006;12.436;2023-08-07T13:22:54;18.50;99.90
5196;DHT22;2617;51.006;12.436;2023-08-07T13:27:57;19.30;99.90
5196;DHT22;2617;51.006;12.436;2023-08-07T13:32:59;19.30;99.90
5196;DHT22;2617;51.006;12.436;2023-08-07T13:38:02;18.70;99.90
5196;DHT22;2617;51.006;12.436;2023-08-07T13:43:06;18.70;99.90
5196;DHT22;2617;51.006;12.436;2023-08-07T13:48:10;18.40;99.90
5196;DHT22;2617;51.006;12.436;2023-08-07T13:53:12;18.20;99.90
5196;DHT22;2617;51.006;12.436;2023-08-07T13:58:14;18.20;99.90
5196;DHT22;2617;51.006;12.436;2023-08-07T14:03:17;18.20;99.90
5196;DHT22;2617;51.006;12.436;2023-08-07T14:08:20;18.00;99.90
5196;DHT22;2617;51.006;12.436;2023-08-07T14:13:22;17.50;99.90
5196;DHT22;2617;51.006;12.436;2023-08-07T14:18:23;17.20;99.90
5196;DHT22;2617;51.006;12.436;2023-08-07T14:23:25;17.00;99.90
5196;DHT22;2617;51.006;12.436;2023-08-07T14:28:27;16.70;99.90
5196;DHT22;2617;51.006;12.436;2023-08-07T14:33:29;16.80;99.90
5196;DHT22;2617;51.006;12.436;2023-08-07T14:38:30;16.80;99.90
5196;DHT22;2617;51.006;12.436;2023-08-07T14:43:32;17.10;99.90
5196;DHT22;2617;51.006;12.436;2023-08-07T14:48:34;17.40;99.90
5196;DHT22;2617;51.006;12.436;2023-08-07T14:53:36;17.40;99.90
5196;DHT22;2617;51.006;12.436;2023-08-07T14:58:38;18.10;99.90
5196;DHT22;2617;51.006;12.436;2023-08-07T15:03:40;18.10;99.90
5196;DHT22;2617;51.006;12.436;2023-08-07T15:08:42;18.20;99.90
5196;DHT22;2617;51.006;12.436;2023-08-07T15:13:44;17.80;99.90
5196;DHT22;2617;51.006;12.436;2023-08-07T15:18:46;17.40;99.90
5196;DHT22;2617;51.006;12.436;2023-08-07T15:23:48;16.30;99.90
5196;DHT22;2617;51.006;12.436;2023-08-07T15:28:51;16.30;99.90
5196;DHT22;2617;51.006;12.436;2023-08-07T15:33:53;16.00;99.90
5196;DHT22;2617;51.006;12.436;2023-08-07T15:38:55;15.90;99.90
5196;DHT22;2617;51.006;12.436;2023-08-07T15:43:56;16.00;99.90
5196;DHT22;2617;51.006;12.436;2023-08-07T15:48:58;16.00;99.90
5196;DHT22;2617;51.006;12.436;2023-08-07T15:54:00;15.90;99.90
5196;DHT22;2617;51.006;12.436;2023-08-07T15:59:02;16.30;99.90
5196;DHT22;2617;51.006;12.436;2023-08-07T16:04:04;16.60;99.90
5196;DHT22;2617;51.006;12.436;2023-08-07T16:09:05;16.60;99.90
5196;DHT22;2617;51.006;12.436;2023-08-07T16:14:07;16.50;99.90
5196;DHT22;2617;51.006;12.436;2023-08-07T16:19:09;16.30;99.90
5196;DHT22;2617;51.006;12.436;2023-08-07T16:24:11;16.20;99.90
5196;DHT22;2617;51.006;12.436;2023-08-07T16:29:13;16.10;99.90
5196;DHT22;2617;51.006;12.436;2023-08-07T16:34:14;16.00;99.90
5196;DHT22;2617;51.006;12.436;2023-08-07T16:39:17;16.40;99.90
5196;DHT22;2617;51.006;12.436;2023-08-07T16:44:19;16.40;99.90
5196;DHT22;2617;51.006;12.436;2023-08-07T16:49:20;16.70;99.90
5196;DHT22;2617;51.006;12.436;2023-08-07T16:54:23;16.70;99.90
5196;DHT22;2617;51.006;12.436;2023-08-07T16:59:25;16.70;99.90
5196;DHT22;2617;51.006;12.436;2023-08-07T17:04:27;16.60;99.90
5196;DHT22;2617;51.006;12.436;2023-08-07T17:09:28;16.50;99.90
5196;DHT22;2617;51.006;12.436;2023-08-07T17:14:30;16.30;99.90
5196;DHT22;2617;51.006;12.436;2023-08-07T17:19:32;16.20;99.90
5196;DHT22;2617;51.006;12.436;2023-08-07T17:24:34;16.20;99.90
5196;DHT22;2617;51.006;12.436;2023-08-07T17:29:35;16.10;99.90
5196;DHT22;2617;51.006;12.436;2023-08-07T17:34:38;16.10;99.90
5196;DHT22;2617;51.006;12.436;2023-08-07T17:39:40;16.20;99.90
5196;DHT22;2617;51.006;12.436;2023-08-07T17:44:42;16.20;99.90
5196;DHT22;2617;51.006;12.436;2023-08-07T17:49:44;16.20;99.90
5196;DHT22;2617;51.006;12.436;2023-08-07T17:54:46;16.20;99.90
5196;DHT22;2617;51.006;12.436;2023-08-07T17:59:48;16.20;99.90
5196;DHT22;2617;51.006;12.436;2023-08-07T18:04:51;16.20;99.90
5196;DHT22;2617;51.006;12.436;2023-08-07T18:09:53;16.20;99.90
5196;DHT22;2617;51.006;12.436;2023-08-07T18:14:55;16.20;99.90
5196;DHT22;2617;51.006;12.436;2023-08-07T18:19:57;16.20;99.90
5196;DHT22;2617;51.006;12.436;2023-08-07T18:24:59;16.00;99.90
5196;DHT22;2617;51.006;12.436;2023-08-07T18:30:01;15.70;99.90
5196;DHT22;2617;51.006;12.436;2023-08-07T18:35:03;15.40;99.90
5196;DHT22;2617;51.006;12.436;2023-08-07T18:40:06;15.10;99.90
5196;DHT22;2617;51.006;12.436;2023-08-07T18:45:09;14.90;99.90
5196;DHT22;2617;51.006;12.436;2023-08-07T18:50:11;14.70;99.90
5196;DHT22;2617;51.006;12.436;2023-08-07T18:55:12;14.60;99.90
5196;DHT22;2617;51.006;12.436;2023-08-07T19:00:14;14.40;99.90
5196;DHT22;2617;51.006;12.436;2023-08-07T19:05:16;14.30;99.90
5196;DHT22;2617;51.006;12.436;2023-08-07T19:10:18;14.20;99.90
5196;DHT22;2617;51.006;12.436;2023-08-07T19:15:21;14.00;99.90
5196;DHT22;2617;51.006;12.436;2023-08-07T19:20:22;14.00;99.90
5196;DHT22;2617;51.006;12.436;2023-08-07T19:25:25;13.90;99.90
5196;DHT22;2617;51.006;12.436;2023-08-07T19:30:27;13.90;99.90
5196;DHT22;2617;51.006;12.436;2023-08-07T19:35:29;13.90;99.90
5196;DHT22;2617;51.006;12.436;2023-08-07T19:40:30;13.90;99.90
5196;DHT22;2617;51.006;12.436;2023-08-07T19:45:33;13.80;99.90
5196;DHT22;2617;51.006;12.436;2023-08-07T19:50:35;13.80;99.90
5196;DHT22;2617;51.006;12.436;2023-08-07T19:55:37;14.00;99.90
5196;DHT22;2617;51.006;12.436;2023-08-07T20:00:39;13.90;99.90
5196;DHT22;2617;51.006;12.436;2023-08-07T20:05:41;14.00;99.90
5196;DHT22;2617;51.006;12.436;2023-08-07T20:10:43;14.00;99.90
5196;DHT22;2617;51.006;12.436;2023-08-07T20:15:45;14.00;99.90
5196;DHT22;2617;51.006;12.436;2023-08-07T20:20:48;14.00;99.90
5196;DHT22;2617;51.006;12.436;2023-08-07T20:25:50;13.90;99.90
5196;DHT22;2617;51.006;12.436;2023-08-07T20:30:51;13.90;99.90
5196;DHT22;2617;51.006;12.436;2023-08-07T20:35:53;13.80;99.90
5196;DHT22;2617;51.006;12.436;2023-08-07T20:40:55;13.80;99.90
5196;DHT22;2617;51.006;12.436;2023-08-07T20:45:58;13.90;99.90
5196;DHT22;2617;51.006;12.436;2023-08-07T20:50:59;13.80;99.90
5196;DHT22;2617;51.006;12.436;2023-08-07T20:56:02;13.90;99.90
5196;DHT22;2617;51.006;12.436;2023-08-07T21:01:05;13.90;99.90
5196;DHT22;2617;51.006;12.436;2023-08-07T21:06:06;13.90;99.90
5196;DHT22;2617;51.006;12.436;2023-08-07T21:11:08;13.90;99.90
5196;DHT22;2617;51.006;12.436;2023-08-07T21:16:11;13.90;99.90
5196;DHT22;2617;51.006;12.436;2023-08-07T21:21:13;13.90;99.90
5196;DHT22;2617;51.006;12.436;2023-08-07T21:26:14;13.80;99.90
5196;DHT22;2617;51.006;12.436;2023-08-07T21:31:16;13.80;99.90
5196;DHT22;2617;51.006;12.436;2023-08-07T21:36:19;13.60;99.90
5196;DHT22;2617;51.006;12.436;2023-08-07T21:41:21;13.30;99.90
5196;DHT22;2617;51.006;12.436;2023-08-07T21:46:24;13.20;99.90
5196;DHT22;2617;51.006;12.436;2023-08-07T21:51:27;13.00;99.90
5196;DHT22;2617;51.006;12.436;2023-08-07T21:56:28;13.00;99.90
5196;DHT22;2617;51.006;12.436;2023-08-07T22:01:31;12.70;99.90
5196;DHT22;2617;51.006;12.436;2023-08-07T22:06:34;12.60;99.90
5196;DHT22;2617;51.006;12.436;2023-08-07T22:11:35;12.50;99.90
5196;DHT22;2617;51.006;12.436;2023-08-07T22:16:37;12.40;99.90
5196;DHT22;2617;51.006;12.436;2023-08-07T22:21:39;12.30;99.90
5196;DHT22;2617;51.006;12.436;2023-08-07T22:26:41;12.00;99.90
5196;DHT22;2617;51.006;12.436;2023-08-07T22:31:43;12.00;99.90
5196;DHT22;2617;51.006;12.436;2023-08-07T22:36:45;11.90;99.90
5196;DHT22;2617;51.006;12.436;2023-08-07T22:41:47;11.90;99.90
5196;DHT22;2617;51.006;12.436;2023-08-07T22:46:48;11.90;99.90
5196;DHT22;2617;51.006;12.436;2023-08-07T22:51:50;11.80;99.90
5196;DHT22;2617;51.006;12.436;2023-08-07T22:56:53;11.60;99.90
5196;DHT22;2617;51.006;12.436;2023-08-07T23:01:55;11.40;99.90
5196;DHT22;2617;51.006;12.436;2023-08-07T23:06:58;11.30;99.90
5196;DHT22;2617;51.006;12.436;2023-08-07T23:12:00;11.20;99.90
5196;DHT22;2617;51.006;12.436;2023-08-07T23:17:03;11.20;99.90
5196;DHT22;2617;51.006;12.436;2023-08-07T23:22:05;11.10;99.90
5196;DHT22;2617;51.006;12.436;2023-08-07T23:27:07;11.10;99.90
5196;DHT22;2617;51.006;12.436;2023-08-07T23:32:09;11.00;99.90
5196;DHT22;2617;51.006;12.436;2023-08-07T23:37:10;10.90;99.90
5196;DHT22;2617;51.006;12.436;2023-08-07T23:42:12;10.90;99.90
5196;DHT22;2617;51.006;12.436;2023-08-07T23:47:14;10.90;99.90
5196;DHT22;2617;51.006;12.436;2023-08-07T23:52:16;11.00;99.90
5196;DHT22;2617;51.006;12.436;2023-08-07T23:57:18;11.00;99.90
